Weather at Colorado River Medical Center Helipad

Public forecast

Using degrees Fahrenheit for public forecast. Weather courtesy of forecast.io.

Closest aviation weather report (METAR) to Colorado River Medical Center Helipad

Closest report is Needles Airport, 4.0 nm (7.3 km) S. Retrieved 2021/06/25 03:56 UTC (13 minutes ago):

KEED 250356Z AUTO 31003KT 10SM CLR 31/17 A2980 RMK AO2 SLP059 T03060172

Closest aviation forecast (TAF) to Colorado River Medical Center Helipad

Closest forecast is Needles Airport, 4.0 nm (7.3 km) S. Retrieved 2021-06-25 00:22 UTC (4 hours ago):

TAF KEED 242320Z 2500/2524 20015G27KT P6SM VCTS SCT110CB FM250100 26007KT P6SM SCT120 FM251200 VRB06KT P6SM SKC